sensor_id;sensor_type;location;lat;lon;timestamp;P1;durP1;ratioP1;P2;durP2;ratioP2
13706;SDS011;6925;47.816;13.072;2022-12-05T00:01:14;14.43;;;7.53;;
13706;SDS011;6925;47.816;13.072;2022-12-05T00:03:42;15.90;;;8.82;;
13706;SDS011;6925;47.816;13.072;2022-12-05T00:06:11;15.55;;;7.65;;
13706;SDS011;6925;47.816;13.072;2022-12-05T00:08:38;15.75;;;7.63;;
13706;SDS011;6925;47.816;13.072;2022-12-05T00:11:09;15.35;;;8.00;;
13706;SDS011;6925;47.816;13.072;2022-12-05T00:13:37;16.73;;;8.60;;
13706;SDS011;6925;47.816;13.072;2022-12-05T00:16:06;14.55;;;7.38;;
13706;SDS011;6925;47.816;13.072;2022-12-05T00:18:34;16.65;;;8.32;;
13706;SDS011;6925;47.816;13.072;2022-12-05T00:21:01;17.38;;;9.15;;
13706;SDS011;6925;47.816;13.072;2022-12-05T00:23:30;14.68;;;8.25;;
13706;SDS011;6925;47.816;13.072;2022-12-05T00:26:00;14.63;;;7.45;;
13706;SDS011;6925;47.816;13.072;2022-12-05T00:28:28;15.45;;;7.55;;
13706;SDS011;6925;47.816;13.072;2022-12-05T00:30:57;11.25;;;7.28;;
13706;SDS011;6925;47.816;13.072;2022-12-05T00:33:27;15.57;;;7.55;;
13706;SDS011;6925;47.816;13.072;2022-12-05T00:35:55;13.27;;;6.85;;
13706;SDS011;6925;47.816;13.072;2022-12-05T00:38:27;15.73;;;7.50;;
13706;SDS011;6925;47.816;13.072;2022-12-05T00:40:55;14.63;;;7.25;;
13706;SDS011;6925;47.816;13.072;2022-12-05T00:43:23;15.07;;;7.78;;
13706;SDS011;6925;47.816;13.072;2022-12-05T00:45:50;15.07;;;7.75;;
13706;SDS011;6925;47.816;13.072;2022-12-05T00:48:18;14.82;;;6.80;;
13706;SDS011;6925;47.816;13.072;2022-12-05T00:50:45;16.30;;;8.18;;
13706;SDS011;6925;47.816;13.072;2022-12-05T00:53:12;13.77;;;7.82;;
13706;SDS011;6925;47.816;13.072;2022-12-05T00:55:40;12.48;;;6.93;;
13706;SDS011;6925;47.816;13.072;2022-12-05T00:58:11;12.85;;;6.95;;
13706;SDS011;6925;47.816;13.072;2022-12-05T01:00:38;14.88;;;7.28;;
13706;SDS011;6925;47.816;13.072;2022-12-05T01:03:06;12.73;;;6.82;;
13706;SDS011;6925;47.816;13.072;2022-12-05T01:05:33;14.98;;;7.97;;
13706;SDS011;6925;47.816;13.072;2022-12-05T01:08:01;14.18;;;7.35;;
13706;SDS011;6925;47.816;13.072;2022-12-05T01:10:28;12.88;;;6.75;;
13706;SDS011;6925;47.816;13.072;2022-12-05T01:12:56;13.32;;;6.88;;
13706;SDS011;6925;47.816;13.072;2022-12-05T01:15:25;12.30;;;6.57;;
13706;SDS011;6925;47.816;13.072;2022-12-05T01:17:52;13.63;;;7.10;;
13706;SDS011;6925;47.816;13.072;2022-12-05T01:20:19;13.18;;;7.07;;
13706;SDS011;6925;47.816;13.072;2022-12-05T01:22:47;12.05;;;6.18;;
13706;SDS011;6925;47.816;13.072;2022-12-05T01:25:14;11.68;;;6.18;;
13706;SDS011;6925;47.816;13.072;2022-12-05T01:27:42;12.80;;;6.35;;
13706;SDS011;6925;47.816;13.072;2022-12-05T01:30:09;12.27;;;6.45;;
13706;SDS011;6925;47.816;13.072;2022-12-05T01:32:38;13.82;;;7.00;;
13706;SDS011;6925;47.816;13.072;2022-12-05T01:35:06;13.70;;;7.07;;
13706;SDS011;6925;47.816;13.072;2022-12-05T01:37:33;13.93;;;6.80;;
13706;SDS011;6925;47.816;13.072;2022-12-05T01:40:01;14.55;;;7.00;;
13706;SDS011;6925;47.816;13.072;2022-12-05T01:45:03;11.95;;;5.95;;
13706;SDS011;6925;47.816;13.072;2022-12-05T01:47:32;11.20;;;5.50;;
13706;SDS011;6925;47.816;13.072;2022-12-05T01:50:02;9.80;;;5.28;;
13706;SDS011;6925;47.816;13.072;2022-12-05T01:52:30;9.40;;;4.68;;
13706;SDS011;6925;47.816;13.072;2022-12-05T01:55:01;10.10;;;5.70;;
13706;SDS011;6925;47.816;13.072;2022-12-05T01:57:30;12.00;;;5.28;;
13706;SDS011;6925;47.816;13.072;2022-12-05T01:59:59;11.15;;;5.28;;
13706;SDS011;6925;47.816;13.072;2022-12-05T02:02:28;9.23;;;4.70;;
13706;SDS011;6925;47.816;13.072;2022-12-05T02:04:57;10.57;;;5.18;;
13706;SDS011;6925;47.816;13.072;2022-12-05T02:07:28;12.18;;;5.97;;
13706;SDS011;6925;47.816;13.072;2022-12-05T02:09:55;9.38;;;4.80;;
13706;SDS011;6925;47.816;13.072;2022-12-05T02:12:22;9.43;;;4.63;;
13706;SDS011;6925;47.816;13.072;2022-12-05T02:14:54;10.95;;;5.55;;
13706;SDS011;6925;47.816;13.072;2022-12-05T02:17:26;8.85;;;5.13;;
13706;SDS011;6925;47.816;13.072;2022-12-05T02:20:02;10.52;;;5.43;;
13706;SDS011;6925;47.816;13.072;2022-12-05T02:25:29;8.20;;;4.50;;
13706;SDS011;6925;47.816;13.072;2022-12-05T02:30:51;11.27;;;5.22;;
13706;SDS011;6925;47.816;13.072;2022-12-05T02:33:21;9.93;;;4.60;;
13706;SDS011;6925;47.816;13.072;2022-12-05T02:35:51;9.55;;;4.78;;
13706;SDS011;6925;47.816;13.072;2022-12-05T02:38:24;8.00;;;4.78;;
13706;SDS011;6925;47.816;13.072;2022-12-05T02:40:54;7.82;;;4.30;;
13706;SDS011;6925;47.816;13.072;2022-12-05T02:43:24;7.53;;;4.13;;
13706;SDS011;6925;47.816;13.072;2022-12-05T02:45:55;9.82;;;4.97;;
13706;SDS011;6925;47.816;13.072;2022-12-05T02:48:24;12.00;;;5.82;;
13706;SDS011;6925;47.816;13.072;2022-12-05T02:50:54;9.38;;;4.85;;
13706;SDS011;6925;47.816;13.072;2022-12-05T02:53:24;10.90;;;5.35;;
13706;SDS011;6925;47.816;13.072;2022-12-05T02:55:53;9.95;;;5.15;;
13706;SDS011;6925;47.816;13.072;2022-12-05T02:58:22;9.70;;;5.35;;
13706;SDS011;6925;47.816;13.072;2022-12-05T03:00:54;12.20;;;5.80;;
13706;SDS011;6925;47.816;13.072;2022-12-05T03:03:23;12.55;;;5.80;;
13706;SDS011;6925;47.816;13.072;2022-12-05T03:05:53;11.60;;;6.47;;
13706;SDS011;6925;47.816;13.072;2022-12-05T03:08:22;10.90;;;5.38;;
13706;SDS011;6925;47.816;13.072;2022-12-05T03:10:51;15.40;;;6.60;;
13706;SDS011;6925;47.816;13.072;2022-12-05T03:13:20;14.23;;;6.55;;
13706;SDS011;6925;47.816;13.072;2022-12-05T03:15:48;14.00;;;6.30;;
13706;SDS011;6925;47.816;13.072;2022-12-05T03:18:18;13.25;;;6.80;;
13706;SDS011;6925;47.816;13.072;2022-12-05T03:20:51;12.90;;;6.68;;
13706;SDS011;6925;47.816;13.072;2022-12-05T03:23:21;12.35;;;6.43;;
13706;SDS011;6925;47.816;13.072;2022-12-05T03:25:59;12.60;;;6.65;;
13706;SDS011;6925;47.816;13.072;2022-12-05T03:28:37;12.77;;;5.53;;
13706;SDS011;6925;47.816;13.072;2022-12-05T03:31:10;13.82;;;6.25;;
13706;SDS011;6925;47.816;13.072;2022-12-05T03:33:39;12.63;;;6.40;;
13706;SDS011;6925;47.816;13.072;2022-12-05T03:36:10;12.50;;;6.05;;
13706;SDS011;6925;47.816;13.072;2022-12-05T03:38:43;13.25;;;6.50;;
13706;SDS011;6925;47.816;13.072;2022-12-05T03:41:13;12.02;;;6.32;;
13706;SDS011;6925;47.816;13.072;2022-12-05T03:43:43;11.25;;;6.18;;
13706;SDS011;6925;47.816;13.072;2022-12-05T03:46:13;16.02;;;7.03;;
13706;SDS011;6925;47.816;13.072;2022-12-05T03:48:45;13.77;;;6.47;;
13706;SDS011;6925;47.816;13.072;2022-12-05T03:51:15;13.60;;;6.05;;
13706;SDS011;6925;47.816;13.072;2022-12-05T03:53:45;16.70;;;7.57;;
13706;SDS011;6925;47.816;13.072;2022-12-05T03:56:16;11.93;;;6.88;;
13706;SDS011;6925;47.816;13.072;2022-12-05T03:58:46;13.18;;;6.63;;
13706;SDS011;6925;47.816;13.072;2022-12-05T04:01:15;14.23;;;7.07;;
13706;SDS011;6925;47.816;13.072;2022-12-05T04:03:45;14.63;;;7.35;;
13706;SDS011;6925;47.816;13.072;2022-12-05T04:06:17;17.05;;;7.85;;
13706;SDS011;6925;47.816;13.072;2022-12-05T04:08:48;16.10;;;7.32;;
13706;SDS011;6925;47.816;13.072;2022-12-05T04:11:17;14.88;;;7.18;;
13706;SDS011;6925;47.816;13.072;2022-12-05T04:13:46;13.90;;;7.05;;
13706;SDS011;6925;47.816;13.072;2022-12-05T04:16:15;17.15;;;7.68;;
13706;SDS011;6925;47.816;13.072;2022-12-05T04:19:02;19.40;;;7.97;;
13706;SDS011;6925;47.816;13.072;2022-12-05T04:21:32;17.23;;;8.55;;
13706;SDS011;6925;47.816;13.072;2022-12-05T04:24:05;14.43;;;6.70;;
13706;SDS011;6925;47.816;13.072;2022-12-05T04:26:52;15.65;;;7.35;;
13706;SDS011;6925;47.816;13.072;2022-12-05T04:29:24;18.77;;;7.97;;
13706;SDS011;6925;47.816;13.072;2022-12-05T04:31:54;20.58;;;9.20;;
13706;SDS011;6925;47.816;13.072;2022-12-05T04:34:23;17.42;;;7.72;;
13706;SDS011;6925;47.816;13.072;2022-12-05T04:36:55;17.98;;;8.05;;
13706;SDS011;6925;47.816;13.072;2022-12-05T04:39:24;17.15;;;7.90;;
13706;SDS011;6925;47.816;13.072;2022-12-05T04:41:53;15.00;;;6.63;;
13706;SDS011;6925;47.816;13.072;2022-12-05T04:44:22;18.02;;;7.10;;
13706;SDS011;6925;47.816;13.072;2022-12-05T04:46:52;14.00;;;6.93;;
13706;SDS011;6925;47.816;13.072;2022-12-05T04:49:20;17.67;;;7.63;;
13706;SDS011;6925;47.816;13.072;2022-12-05T04:51:48;14.85;;;7.50;;
13706;SDS011;6925;47.816;13.072;2022-12-05T04:54:18;21.98;;;7.68;;
13706;SDS011;6925;47.816;13.072;2022-12-05T04:56:46;15.77;;;7.38;;
13706;SDS011;6925;47.816;13.072;2022-12-05T04:59:14;13.88;;;7.25;;
13706;SDS011;6925;47.816;13.072;2022-12-05T05:01:43;16.65;;;7.80;;
13706;SDS011;6925;47.816;13.072;2022-12-05T05:04:12;14.98;;;7.68;;
13706;SDS011;6925;47.816;13.072;2022-12-05T05:06:41;16.40;;;8.02;;
13706;SDS011;6925;47.816;13.072;2022-12-05T05:11:37;16.40;;;7.90;;
13706;SDS011;6925;47.816;13.072;2022-12-05T05:14:05;15.75;;;7.47;;
13706;SDS011;6925;47.816;13.072;2022-12-05T05:16:32;18.08;;;7.05;;
13706;SDS011;6925;47.816;13.072;2022-12-05T05:19:00;12.38;;;6.28;;
13706;SDS011;6925;47.816;13.072;2022-12-05T05:21:29;17.90;;;7.97;;
13706;SDS011;6925;47.816;13.072;2022-12-05T05:23:57;17.17;;;7.25;;
13706;SDS011;6925;47.816;13.072;2022-12-05T05:26:24;17.27;;;7.43;;
13706;SDS011;6925;47.816;13.072;2022-12-05T05:28:54;17.13;;;7.18;;
13706;SDS011;6925;47.816;13.072;2022-12-05T05:31:23;19.85;;;7.88;;
13706;SDS011;6925;47.816;13.072;2022-12-05T05:33:51;17.70;;;7.28;;
13706;SDS011;6925;47.816;13.072;2022-12-05T05:36:19;15.75;;;7.28;;
13706;SDS011;6925;47.816;13.072;2022-12-05T05:38:47;15.57;;;6.88;;
13706;SDS011;6925;47.816;13.072;2022-12-05T05:41:15;14.15;;;7.15;;
13706;SDS011;6925;47.816;13.072;2022-12-05T05:43:43;17.67;;;7.18;;
13706;SDS011;6925;47.816;13.072;2022-12-05T05:46:13;14.80;;;6.43;;
13706;SDS011;6925;47.816;13.072;2022-12-05T05:48:41;13.02;;;5.93;;
13706;SDS011;6925;47.816;13.072;2022-12-05T05:51:09;13.02;;;6.00;;
13706;SDS011;6925;47.816;13.072;2022-12-05T05:53:37;13.05;;;6.30;;
13706;SDS011;6925;47.816;13.072;2022-12-05T05:58:31;13.63;;;6.32;;
13706;SDS011;6925;47.816;13.072;2022-12-05T06:01:01;12.15;;;6.15;;
13706;SDS011;6925;47.816;13.072;2022-12-05T06:03:30;11.40;;;6.03;;
13706;SDS011;6925;47.816;13.072;2022-12-05T06:05:58;13.43;;;6.13;;
13706;SDS011;6925;47.816;13.072;2022-12-05T06:08:28;15.38;;;6.03;;
13706;SDS011;6925;47.816;13.072;2022-12-05T06:10:55;15.27;;;6.63;;
13706;SDS011;6925;47.816;13.072;2022-12-05T06:13:23;15.57;;;6.55;;
13706;SDS011;6925;47.816;13.072;2022-12-05T06:15:50;16.15;;;7.15;;
13706;SDS011;6925;47.816;13.072;2022-12-05T06:18:18;12.95;;;6.13;;
13706;SDS011;6925;47.816;13.072;2022-12-05T06:20:51;14.60;;;7.20;;
13706;SDS011;6925;47.816;13.072;2022-12-05T06:23:19;14.95;;;5.88;;
13706;SDS011;6925;47.816;13.072;2022-12-05T06:25:47;15.48;;;6.57;;
13706;SDS011;6925;47.816;13.072;2022-12-05T06:28:14;15.10;;;5.95;;
13706;SDS011;6925;47.816;13.072;2022-12-05T06:30:42;15.23;;;6.57;;
13706;SDS011;6925;47.816;13.072;2022-12-05T06:33:09;11.65;;;5.82;;
13706;SDS011;6925;47.816;13.072;2022-12-05T06:38:06;13.15;;;5.95;;
13706;SDS011;6925;47.816;13.072;2022-12-05T06:40:33;12.80;;;5.57;;
13706;SDS011;6925;47.816;13.072;2022-12-05T06:43:00;16.55;;;5.53;;
13706;SDS011;6925;47.816;13.072;2022-12-05T06:45:28;12.73;;;5.38;;
13706;SDS011;6925;47.816;13.072;2022-12-05T06:47:55;13.80;;;6.43;;
13706;SDS011;6925;47.816;13.072;2022-12-05T06:50:23;10.40;;;5.40;;
13706;SDS011;6925;47.816;13.072;2022-12-05T06:52:50;13.23;;;5.13;;
13706;SDS011;6925;47.816;13.072;2022-12-05T06:55:19;10.23;;;5.13;;
13706;SDS011;6925;47.816;13.072;2022-12-05T06:57:47;11.45;;;4.85;;
13706;SDS011;6925;47.816;13.072;2022-12-05T07:00:14;11.55;;;5.20;;
13706;SDS011;6925;47.816;13.072;2022-12-05T07:02:59;9.80;;;5.32;;
13706;SDS011;6925;47.816;13.072;2022-12-05T07:05:27;12.18;;;5.03;;
13706;SDS011;6925;47.816;13.072;2022-12-05T07:07:54;9.77;;;4.53;;
13706;SDS011;6925;47.816;13.072;2022-12-05T07:10:23;10.05;;;4.97;;
13706;SDS011;6925;47.816;13.072;2022-12-05T07:12:51;10.75;;;5.47;;
13706;SDS011;6925;47.816;13.072;2022-12-05T07:15:18;10.15;;;4.65;;
13706;SDS011;6925;47.816;13.072;2022-12-05T07:17:46;8.93;;;4.45;;
13706;SDS011;6925;47.816;13.072;2022-12-05T07:20:13;13.05;;;5.57;;
13706;SDS011;6925;47.816;13.072;2022-12-05T07:22:42;12.18;;;5.57;;
13706;SDS011;6925;47.816;13.072;2022-12-05T07:25:09;10.70;;;5.03;;
13706;SDS011;6925;47.816;13.072;2022-12-05T07:27:38;11.63;;;5.03;;
13706;SDS011;6925;47.816;13.072;2022-12-05T07:30:06;11.55;;;5.50;;
13706;SDS011;6925;47.816;13.072;2022-12-05T07:32:34;10.23;;;5.10;;
13706;SDS011;6925;47.816;13.072;2022-12-05T07:35:01;11.18;;;5.72;;
13706;SDS011;6925;47.816;13.072;2022-12-05T07:39:56;23.67;;;11.50;;
13706;SDS011;6925;47.816;13.072;2022-12-05T07:42:23;13.73;;;6.63;;
13706;SDS011;6925;47.816;13.072;2022-12-05T07:44:52;11.38;;;5.45;;
13706;SDS011;6925;47.816;13.072;2022-12-05T07:47:20;11.35;;;4.88;;
13706;SDS011;6925;47.816;13.072;2022-12-05T07:49:47;10.23;;;5.15;;
13706;SDS011;6925;47.816;13.072;2022-12-05T07:52:14;10.73;;;5.95;;
13706;SDS011;6925;47.816;13.072;2022-12-05T07:54:42;11.75;;;6.32;;
13706;SDS011;6925;47.816;13.072;2022-12-05T07:57:09;10.15;;;4.63;;
13706;SDS011;6925;47.816;13.072;2022-12-05T07:59:36;11.80;;;5.60;;
13706;SDS011;6925;47.816;13.072;2022-12-05T08:02:07;11.05;;;6.00;;
13706;SDS011;6925;47.816;13.072;2022-12-05T08:04:34;10.50;;;4.93;;
13706;SDS011;6925;47.816;13.072;2022-12-05T08:07:04;11.75;;;5.90;;
13706;SDS011;6925;47.816;13.072;2022-12-05T08:09:32;10.73;;;5.22;;
13706;SDS011;6925;47.816;13.072;2022-12-05T08:11:59;11.20;;;5.25;;
13706;SDS011;6925;47.816;13.072;2022-12-05T08:14:27;12.18;;;5.32;;
13706;SDS011;6925;47.816;13.072;2022-12-05T08:16:54;11.40;;;5.22;;
13706;SDS011;6925;47.816;13.072;2022-12-05T08:19:23;11.32;;;5.75;;
13706;SDS011;6925;47.816;13.072;2022-12-05T08:21:53;12.98;;;6.47;;
13706;SDS011;6925;47.816;13.072;2022-12-05T08:24:20;11.65;;;5.78;;
13706;SDS011;6925;47.816;13.072;2022-12-05T08:26:49;11.52;;;5.28;;
13706;SDS011;6925;47.816;13.072;2022-12-05T08:29:18;13.18;;;6.28;;
13706;SDS011;6925;47.816;13.072;2022-12-05T08:31:47;15.27;;;7.03;;
13706;SDS011;6925;47.816;13.072;2022-12-05T08:34:15;14.95;;;7.22;;
13706;SDS011;6925;47.816;13.072;2022-12-05T08:36:44;13.75;;;6.88;;
13706;SDS011;6925;47.816;13.072;2022-12-05T08:39:12;15.98;;;7.10;;
13706;SDS011;6925;47.816;13.072;2022-12-05T08:41:40;13.65;;;6.43;;
13706;SDS011;6925;47.816;13.072;2022-12-05T08:44:08;13.63;;;6.20;;
13706;SDS011;6925;47.816;13.072;2022-12-05T08:46:40;11.95;;;6.15;;
13706;SDS011;6925;47.816;13.072;2022-12-05T08:49:09;13.15;;;7.20;;
13706;SDS011;6925;47.816;13.072;2022-12-05T08:51:36;11.85;;;5.78;;
13706;SDS011;6925;47.816;13.072;2022-12-05T08:54:05;13.95;;;6.10;;
13706;SDS011;6925;47.816;13.072;2022-12-05T08:56:33;14.23;;;6.78;;
13706;SDS011;6925;47.816;13.072;2022-12-05T08:59:00;11.40;;;6.15;;
13706;SDS011;6925;47.816;13.072;2022-12-05T09:01:28;11.90;;;6.07;;
13706;SDS011;6925;47.816;13.072;2022-12-05T09:03:56;14.63;;;6.85;;
13706;SDS011;6925;47.816;13.072;2022-12-05T09:06:25;12.57;;;6.38;;
13706;SDS011;6925;47.816;13.072;2022-12-05T09:08:53;12.80;;;6.32;;
13706;SDS011;6925;47.816;13.072;2022-12-05T09:11:24;14.73;;;7.95;;
13706;SDS011;6925;47.816;13.072;2022-12-05T09:13:52;14.93;;;6.63;;
13706;SDS011;6925;47.816;13.072;2022-12-05T09:16:20;14.93;;;6.78;;
13706;SDS011;6925;47.816;13.072;2022-12-05T09:18:49;15.13;;;7.18;;
13706;SDS011;6925;47.816;13.072;2022-12-05T09:21:17;13.13;;;6.68;;
13706;SDS011;6925;47.816;13.072;2022-12-05T09:23:45;13.07;;;6.32;;
13706;SDS011;6925;47.816;13.072;2022-12-05T09:28:41;14.98;;;6.50;;
13706;SDS011;6925;47.816;13.072;2022-12-05T09:31:10;13.07;;;6.75;;
13706;SDS011;6925;47.816;13.072;2022-12-05T09:33:37;13.93;;;6.75;;
13706;SDS011;6925;47.816;13.072;2022-12-05T09:38:32;10.43;;;5.57;;
13706;SDS011;6925;47.816;13.072;2022-12-05T09:41:02;13.95;;;5.78;;
13706;SDS011;6925;47.816;13.072;2022-12-05T09:43:33;12.52;;;6.15;;
13706;SDS011;6925;47.816;13.072;2022-12-05T09:46:05;13.27;;;6.25;;
13706;SDS011;6925;47.816;13.072;2022-12-05T09:51:03;13.18;;;6.25;;
13706;SDS011;6925;47.816;13.072;2022-12-05T09:53:31;13.50;;;6.45;;
13706;SDS011;6925;47.816;13.072;2022-12-05T09:56:01;12.85;;;6.53;;
13706;SDS011;6925;47.816;13.072;2022-12-05T09:58:32;15.07;;;7.53;;
13706;SDS011;6925;47.816;13.072;2022-12-05T10:01:07;13.13;;;7.00;;
13706;SDS011;6925;47.816;13.072;2022-12-05T10:03:40;15.13;;;6.97;;
13706;SDS011;6925;47.816;13.072;2022-12-05T10:06:11;15.70;;;6.78;;
13706;SDS011;6925;47.816;13.072;2022-12-05T10:08:41;14.57;;;7.47;;
13706;SDS011;6925;47.816;13.072;2022-12-05T10:11:15;14.05;;;7.70;;
13706;SDS011;6925;47.816;13.072;2022-12-05T10:13:45;15.20;;;7.65;;
13706;SDS011;6925;47.816;13.072;2022-12-05T10:16:17;15.38;;;7.68;;
13706;SDS011;6925;47.816;13.072;2022-12-05T10:18:47;17.45;;;7.60;;
13706;SDS011;6925;47.816;13.072;2022-12-05T10:21:17;20.45;;;8.57;;
13706;SDS011;6925;47.816;13.072;2022-12-05T10:23:48;17.80;;;8.43;;
13706;SDS011;6925;47.816;13.072;2022-12-05T10:26:17;19.77;;;8.60;;
13706;SDS011;6925;47.816;13.072;2022-12-05T10:28:46;20.05;;;8.88;;
13706;SDS011;6925;47.816;13.072;2022-12-05T10:31:19;16.98;;;7.50;;
13706;SDS011;6925;47.816;13.072;2022-12-05T10:33:50;17.27;;;8.25;;
13706;SDS011;6925;47.816;13.072;2022-12-05T10:36:20;16.95;;;8.63;;
13706;SDS011;6925;47.816;13.072;2022-12-05T10:38:47;17.45;;;8.35;;
13706;SDS011;6925;47.816;13.072;2022-12-05T10:41:15;17.85;;;8.18;;
13706;SDS011;6925;47.816;13.072;2022-12-05T10:43:43;17.92;;;8.13;;
13706;SDS011;6925;47.816;13.072;2022-12-05T10:46:11;17.70;;;9.23;;
13706;SDS011;6925;47.816;13.072;2022-12-05T10:48:40;16.15;;;8.25;;
13706;SDS011;6925;47.816;13.072;2022-12-05T10:51:10;17.73;;;9.48;;
13706;SDS011;6925;47.816;13.072;2022-12-05T10:53:40;16.13;;;8.30;;
13706;SDS011;6925;47.816;13.072;2022-12-05T10:58:53;17.58;;;8.77;;
13706;SDS011;6925;47.816;13.072;2022-12-05T11:01:21;16.30;;;8.25;;
13706;SDS011;6925;47.816;13.072;2022-12-05T11:06:21;16.00;;;8.50;;
13706;SDS011;6925;47.816;13.072;2022-12-05T11:08:50;16.33;;;8.93;;
13706;SDS011;6925;47.816;13.072;2022-12-05T11:11:18;15.82;;;7.82;;
13706;SDS011;6925;47.816;13.072;2022-12-05T11:13:50;14.48;;;7.30;;
13706;SDS011;6925;47.816;13.072;2022-12-05T11:16:20;14.15;;;7.45;;
13706;SDS011;6925;47.816;13.072;2022-12-05T11:18:49;16.77;;;8.20;;
13706;SDS011;6925;47.816;13.072;2022-12-05T11:21:19;15.55;;;7.63;;
13706;SDS011;6925;47.816;13.072;2022-12-05T11:23:47;15.13;;;7.47;;
13706;SDS011;6925;47.816;13.072;2022-12-05T11:26:16;16.08;;;7.43;;
13706;SDS011;6925;47.816;13.072;2022-12-05T11:28:43;13.95;;;6.95;;
13706;SDS011;6925;47.816;13.072;2022-12-05T11:33:39;13.95;;;6.70;;
13706;SDS011;6925;47.816;13.072;2022-12-05T11:36:10;14.80;;;7.30;;
13706;SDS011;6925;47.816;13.072;2022-12-05T11:38:40;14.60;;;7.05;;
13706;SDS011;6925;47.816;13.072;2022-12-05T11:41:18;13.18;;;7.10;;
13706;SDS011;6925;47.816;13.072;2022-12-05T11:46:17;16.40;;;7.18;;
13706;SDS011;6925;47.816;13.072;2022-12-05T11:48:55;14.70;;;7.75;;
13706;SDS011;6925;47.816;13.072;2022-12-05T11:51:33;15.98;;;7.80;;
13706;SDS011;6925;47.816;13.072;2022-12-05T11:54:08;16.48;;;8.23;;
13706;SDS011;6925;47.816;13.072;2022-12-05T11:56:41;16.67;;;8.15;;
13706;SDS011;6925;47.816;13.072;2022-12-05T12:01:57;15.52;;;8.10;;
13706;SDS011;6925;47.816;13.072;2022-12-05T12:04:32;13.05;;;6.95;;
13706;SDS011;6925;47.816;13.072;2022-12-05T12:07:05;15.30;;;7.97;;
13706;SDS011;6925;47.816;13.072;2022-12-05T12:09:41;17.27;;;7.53;;
13706;SDS011;6925;47.816;13.072;2022-12-05T12:12:12;13.43;;;7.18;;
13706;SDS011;6925;47.816;13.072;2022-12-05T12:14:43;13.93;;;7.45;;
13706;SDS011;6925;47.816;13.072;2022-12-05T12:17:14;15.23;;;6.90;;
13706;SDS011;6925;47.816;13.072;2022-12-05T12:19:47;11.55;;;6.97;;
13706;SDS011;6925;47.816;13.072;2022-12-05T12:22:24;14.57;;;6.65;;
13706;SDS011;6925;47.816;13.072;2022-12-05T12:24:59;12.75;;;6.90;;
13706;SDS011;6925;47.816;13.072;2022-12-05T12:27:32;11.73;;;6.22;;
13706;SDS011;6925;47.816;13.072;2022-12-05T12:30:05;12.15;;;7.15;;
13706;SDS011;6925;47.816;13.072;2022-12-05T12:32:36;11.43;;;7.35;;
13706;SDS011;6925;47.816;13.072;2022-12-05T12:37:53;11.35;;;6.72;;
13706;SDS011;6925;47.816;13.072;2022-12-05T12:40:27;12.82;;;7.53;;
13706;SDS011;6925;47.816;13.072;2022-12-05T12:43:00;13.75;;;7.25;;
13706;SDS011;6925;47.816;13.072;2022-12-05T12:45:38;13.35;;;6.53;;
13706;SDS011;6925;47.816;13.072;2022-12-05T12:50:53;11.88;;;7.00;;
13706;SDS011;6925;47.816;13.072;2022-12-05T12:53:28;12.73;;;6.40;;
13706;SDS011;6925;47.816;13.072;2022-12-05T12:55:59;10.65;;;6.60;;
13706;SDS011;6925;47.816;13.072;2022-12-05T12:58:36;11.65;;;6.30;;
13706;SDS011;6925;47.816;13.072;2022-12-05T13:01:07;10.95;;;6.32;;
13706;SDS011;6925;47.816;13.072;2022-12-05T13:03:38;13.43;;;6.38;;
13706;SDS011;6925;47.816;13.072;2022-12-05T13:06:08;11.00;;;5.95;;
13706;SDS011;6925;47.816;13.072;2022-12-05T13:08:39;8.80;;;5.05;;
13706;SDS011;6925;47.816;13.072;2022-12-05T13:11:10;9.82;;;5.75;;
13706;SDS011;6925;47.816;13.072;2022-12-05T13:13:41;11.65;;;5.78;;
13706;SDS011;6925;47.816;13.072;2022-12-05T13:16:11;9.68;;;5.15;;
13706;SDS011;6925;47.816;13.072;2022-12-05T13:18:39;8.65;;;4.72;;
13706;SDS011;6925;47.816;13.072;2022-12-05T13:21:07;9.63;;;5.38;;
13706;SDS011;6925;47.816;13.072;2022-12-05T13:23:35;8.85;;;4.60;;
13706;SDS011;6925;47.816;13.072;2022-12-05T13:26:07;9.18;;;4.55;;
13706;SDS011;6925;47.816;13.072;2022-12-05T13:28:37;10.07;;;5.28;;
13706;SDS011;6925;47.816;13.072;2022-12-05T13:31:07;10.23;;;5.38;;
13706;SDS011;6925;47.816;13.072;2022-12-05T13:33:40;11.65;;;5.60;;
13706;SDS011;6925;47.816;13.072;2022-12-05T13:36:08;9.88;;;5.63;;
13706;SDS011;6925;47.816;13.072;2022-12-05T13:38:55;11.80;;;7.53;;
13706;SDS011;6925;47.816;13.072;2022-12-05T13:41:41;10.23;;;5.60;;
13706;SDS011;6925;47.816;13.072;2022-12-05T13:44:29;10.30;;;5.70;;
13706;SDS011;6925;47.816;13.072;2022-12-05T13:46:58;8.23;;;4.93;;
13706;SDS011;6925;47.816;13.072;2022-12-05T13:49:28;8.25;;;5.00;;
13706;SDS011;6925;47.816;13.072;2022-12-05T13:52:03;7.45;;;4.07;;
13706;SDS011;6925;47.816;13.072;2022-12-05T13:54:32;7.43;;;4.15;;
13706;SDS011;6925;47.816;13.072;2022-12-05T13:57:00;6.85;;;3.85;;
13706;SDS011;6925;47.816;13.072;2022-12-05T14:05:02;7.80;;;4.03;;
13706;SDS011;6925;47.816;13.072;2022-12-05T14:07:52;8.25;;;3.92;;
13706;SDS011;6925;47.816;13.072;2022-12-05T14:10:21;8.85;;;4.45;;
13706;SDS011;6925;47.816;13.072;2022-12-05T14:12:53;7.40;;;4.18;;
13706;SDS011;6925;47.816;13.072;2022-12-05T14:15:30;7.68;;;3.85;;
13706;SDS011;6925;47.816;13.072;2022-12-05T14:17:59;6.38;;;3.42;;
13706;SDS011;6925;47.816;13.072;2022-12-05T14:20:31;6.63;;;3.30;;
13706;SDS011;6925;47.816;13.072;2022-12-05T14:23:08;8.18;;;3.83;;
13706;SDS011;6925;47.816;13.072;2022-12-05T14:25:41;7.00;;;3.47;;
13706;SDS011;6925;47.816;13.072;2022-12-05T14:28:20;6.57;;;3.05;;
13706;SDS011;6925;47.816;13.072;2022-12-05T14:30:54;6.80;;;3.40;;
13706;SDS011;6925;47.816;13.072;2022-12-05T14:33:26;6.93;;;3.50;;
13706;SDS011;6925;47.816;13.072;2022-12-05T14:38:25;9.50;;;3.15;;
13706;SDS011;6925;47.816;13.072;2022-12-05T14:40:53;6.82;;;3.55;;
13706;SDS011;6925;47.816;13.072;2022-12-05T14:43:26;6.47;;;3.25;;
13706;SDS011;6925;47.816;13.072;2022-12-05T14:45:56;8.95;;;3.55;;
13706;SDS011;6925;47.816;13.072;2022-12-05T14:48:25;6.05;;;3.40;;
13706;SDS011;6925;47.816;13.072;2022-12-05T14:50:54;6.47;;;3.10;;
13706;SDS011;6925;47.816;13.072;2022-12-05T14:53:33;6.22;;;3.15;;
13706;SDS011;6925;47.816;13.072;2022-12-05T14:56:03;8.27;;;3.50;;
13706;SDS011;6925;47.816;13.072;2022-12-05T14:58:33;7.90;;;3.45;;
13706;SDS011;6925;47.816;13.072;2022-12-05T15:01:02;6.10;;;3.15;;
13706;SDS011;6925;47.816;13.072;2022-12-05T15:03:32;8.60;;;3.40;;
13706;SDS011;6925;47.816;13.072;2022-12-05T15:06:01;6.78;;;3.15;;
13706;SDS011;6925;47.816;13.072;2022-12-05T15:08:31;7.85;;;3.47;;
13706;SDS011;6925;47.816;13.072;2022-12-05T15:11:01;6.72;;;3.72;;
13706;SDS011;6925;47.816;13.072;2022-12-05T15:13:29;6.68;;;3.60;;
13706;SDS011;6925;47.816;13.072;2022-12-05T15:15:58;6.65;;;3.58;;
13706;SDS011;6925;47.816;13.072;2022-12-05T15:18:29;6.93;;;3.42;;
13706;SDS011;6925;47.816;13.072;2022-12-05T15:20:58;8.68;;;4.00;;
13706;SDS011;6925;47.816;13.072;2022-12-05T15:23:41;11.43;;;4.65;;
13706;SDS011;6925;47.816;13.072;2022-12-05T15:26:16;7.45;;;4.30;;
13706;SDS011;6925;47.816;13.072;2022-12-05T15:28:58;8.65;;;4.53;;
13706;SDS011;6925;47.816;13.072;2022-12-05T15:31:26;7.43;;;4.00;;
13706;SDS011;6925;47.816;13.072;2022-12-05T15:33:55;7.63;;;3.70;;
13706;SDS011;6925;47.816;13.072;2022-12-05T15:36:25;5.97;;;3.25;;
13706;SDS011;6925;47.816;13.072;2022-12-05T15:38:54;6.30;;;3.15;;
13706;SDS011;6925;47.816;13.072;2022-12-05T15:41:23;7.03;;;3.55;;
13706;SDS011;6925;47.816;13.072;2022-12-05T15:43:53;6.63;;;3.65;;
13706;SDS011;6925;47.816;13.072;2022-12-05T15:46:22;6.57;;;3.72;;